Time;durP1;ratioP1;P1;durP2;ratioP2;P2;SDS_P1;SDS_P2;PMS_P1;PMS_P2;Temp;Humidity;BMP_temperature;BMP_pressure;BME280_temperature;BME280_humidity;BME280_pressure;Samples;Min_cycle;Max_cycle;Signal;HPM_P1;HPM_P2
2022/09/22 00:01:35;;;;;;;3.83;2.80;;;19.60;64.60;20.60;101640.00;;;;5008960;28;20195;-44
2022/09/22 00:04:05;;;;;;;4.47;2.77;;;19.50;64.60;20.60;101636.00;;;;5008692;28;20523;-43
2022/09/22 00:06:37;;;;;;;4.03;2.70;;;19.50;64.60;20.60;101632.00;;;;5009025;28;20546;-43
2022/09/22 00:09:05;;;;;;;3.93;2.70;;;19.50;64.60;20.60;101630.00;;;;5008853;28;20179;-43
2022/09/22 00:11:57;;;;;;;6.17;2.80;;;19.50;64.50;20.60;101638.00;;;;5009026;28;20171;-43
2022/09/22 00:14:26;;;;;;;3.43;2.70;;;19.50;65.30;20.60;101632.00;;;;5007788;28;20216;-44
2022/09/22 00:16:57;;;;;;;3.53;2.53;;;19.40;64.50;20.50;101630.00;;;;5007131;28;20197;-44
2022/09/22 00:19:34;;;;;;;3.80;2.63;;;19.40;64.50;20.50;101641.00;;;;5008792;28;20777;-43
2022/09/22 00:22:01;;;;;;;4.30;2.50;;;19.40;64.60;20.50;101640.00;;;;5008860;28;20667;-44
2022/09/22 00:24:27;;;;;;;4.10;2.70;;;19.30;64.50;20.50;101632.00;;;;5008504;28;20561;-43
2022/09/22 00:26:56;;;;;;;3.97;2.33;;;19.30;64.60;20.50;101637.00;;;;5016659;28;20254;-43
2022/09/22 00:29:23;;;;;;;3.60;2.53;;;19.40;64.70;20.50;101635.00;;;;5010075;28;20206;-43
2022/09/22 00:31:49;;;;;;;3.73;2.70;;;19.30;64.60;20.50;101633.00;;;;5008726;28;20232;-43
2022/09/22 00:34:21;;;;;;;4.17;2.50;;;19.30;64.60;20.50;101615.00;;;;5008761;28;20196;-44
2022/09/22 00:36:47;;;;;;;3.10;2.43;;;19.30;64.50;20.40;101635.00;;;;5007446;28;20220;-43
2022/09/22 00:39:13;;;;;;;4.03;2.60;;;19.40;64.60;20.40;101627.00;;;;5008362;28;20195;-44
2022/09/22 00:41:41;;;;;;;4.93;2.60;;;19.30;64.50;20.40;101628.00;;;;5008481;28;20824;-43
2022/09/22 00:44:25;;;;;;;3.30;2.50;;;19.30;64.60;20.40;101636.00;;;;5008680;28;20172;-44
2022/09/22 00:47:31;;;;;;;2.97;2.63;;;19.30;64.70;20.40;101621.00;;;;5011033;28;20180;-43
2022/09/22 00:50:14;;;;;;;4.27;2.47;;;19.20;64.70;20.40;101615.00;;;;5013314;28;20187;-44
2022/09/22 00:53:13;;;;;;;3.23;2.50;;;19.30;65.60;20.40;101624.00;;;;5015235;28;20281;-44
2022/09/22 00:56:05;;;;;;;2.87;2.50;;;19.20;64.70;20.30;101621.00;;;;5011326;28;20187;-44
2022/09/22 00:58:34;;;;;;;2.83;2.40;;;19.20;64.70;20.30;101623.00;;;;4995044;28;20163;-43
2022/09/22 01:01:00;;;;;;;3.47;2.40;;;19.20;64.70;20.30;101615.00;;;;5011210;28;20222;-43
2022/09/22 01:03:28;;;;;;;2.83;2.40;;;19.20;64.70;20.30;101627.00;;;;5011292;28;20732;-44
2022/09/22 01:05:56;;;;;;;3.70;2.57;;;19.10;64.70;20.30;101632.00;;;;5025914;28;20275;-43
2022/09/22 01:08:22;;;;;;;3.07;2.37;;;19.10;64.70;20.30;101615.00;;;;5028710;28;20239;-43
2022/09/22 01:10:48;;;;;;;3.30;2.40;;;19.10;64.70;20.30;101613.00;;;;5018682;28;20168;-43
2022/09/22 01:13:31;;;;;;;2.97;2.60;;;19.10;64.80;20.30;101609.00;;;;5016841;28;20226;-44
2022/09/22 01:16:23;;;;;;;2.40;2.20;;;19.10;64.80;20.10;101614.00;;;;5023246;28;20156;-44
2022/09/22 01:19:24;;;;;;;2.60;2.40;;;19.10;64.80;20.20;101607.00;;;;5014461;28;20156;-43
2022/09/22 01:22:05;;;;;;;2.40;2.20;;;19.10;64.80;20.20;101604.00;;;;5012755;28;20523;-43
2022/09/22 01:24:58;;;;;;;2.53;2.20;;;19.10;64.80;20.20;101601.00;;;;5011675;28;20167;-44
2022/09/22 01:27:30;;;;;;;2.63;2.40;;;19.10;64.80;20.20;101601.00;;;;5010365;28;20175;-43
2022/09/22 01:30:22;;;;;;;2.37;2.17;;;19.00;65.60;20.10;101608.00;;;;5010872;28;20187;-43
2022/09/22 01:33:16;;;;;;;2.73;2.20;;;19.00;64.80;20.10;101582.00;;;;5011380;28;20286;-44
2022/09/22 01:36:00;;;;;;;2.73;2.37;;;19.00;64.70;20.10;101597.00;;;;5010379;28;20590;-44
2022/09/22 01:38:46;;;;;;;2.53;2.20;;;19.00;64.70;20.10;101588.00;;;;5010204;28;20168;-43
2022/09/22 01:41:22;;;;;;;2.50;2.30;;;19.00;64.70;20.10;101578.00;;;;5010473;28;20489;-43
2022/09/22 01:43:55;;;;;;;3.30;2.57;;;18.90;64.70;20.10;101588.00;;;;5010367;28;20274;-43
2022/09/22 01:46:28;;;;;;;2.43;2.23;;;18.90;64.70;20.10;101583.00;;;;5010122;28;20164;-43
2022/09/22 01:48:54;;;;;;;2.60;2.40;;;18.90;64.70;20.00;101585.00;;;;5011523;28;20168;-43
2022/09/22 01:51:52;;;;;;;2.87;2.30;;;18.90;64.70;20.10;101580.00;;;;5010333;28;20187;-44
2022/09/22 01:54:31;;;;;;;2.63;2.33;;;18.90;64.80;20.00;101594.00;;;;4990103;28;20574;-43
2022/09/22 01:57:23;;;;;;;2.60;2.20;;;18.90;64.80;20.00;101589.00;;;;5008857;28;20175;-43
2022/09/22 01:59:56;;;;;;;2.40;2.20;;;18.90;64.80;20.00;101583.00;;;;5006249;28;20179;-44
2022/09/22 02:02:27;;;;;;;2.60;2.40;;;18.90;64.70;20.00;101586.00;;;;5009771;28;20226;-44
2022/09/22 02:04:56;;;;;;;3.17;2.30;;;18.80;64.60;20.00;101581.00;;;;5009995;28;20179;-43
2022/09/22 02:07:38;;;;;;;3.43;2.20;;;18.80;64.60;20.00;101576.00;;;;5010165;28;20180;-43
2022/09/22 02:10:08;;;;;;;2.30;2.10;;;18.90;64.70;19.90;101581.00;;;;5010194;28;20596;-43
2022/09/22 02:12:35;;;;;;;2.40;2.20;;;18.80;65.50;19.90;101576.00;;;;5009940;28;20557;-43
2022/09/22 02:15:03;;;;;;;2.43;2.10;;;18.80;64.70;19.90;101578.00;;;;5009912;28;20210;-43
2022/09/22 02:17:28;;;;;;;2.63;2.10;;;18.80;64.70;19.90;101563.00;;;;5011114;28;20180;-44
2022/09/22 02:19:54;;;;;;;2.40;2.20;;;18.80;64.70;19.90;101579.00;;;;5010045;28;20251;-43
2022/09/22 02:22:20;;;;;;;3.23;2.00;;;18.80;64.70;19.90;101568.00;;;;4998419;28;20188;-43
2022/09/22 02:24:46;;;;;;;2.57;2.30;;;18.80;64.70;19.90;101565.00;;;;5014031;28;20731;-43
2022/09/22 02:27:25;;;;;;;2.60;2.20;;;18.80;65.50;19.90;101574.00;;;;5009299;28;20544;-43
2022/09/22 02:30:07;;;;;;;2.27;2.07;;;18.70;64.60;19.90;101566.00;;;;5009769;28;20569;-44
2022/09/22 02:32:33;;;;;;;2.50;2.30;;;18.70;64.70;19.90;101547.00;;;;5009191;28;20203;-44
2022/09/22 02:35:00;;;;;;;2.40;2.20;;;18.70;64.70;19.80;101567.00;;;;5009345;28;20199;-44
2022/09/22 02:37:46;;;;;;;2.30;2.10;;;18.70;64.60;19.80;101561.00;;;;5009099;28;20168;-43
2022/09/22 02:40:47;;;;;;;2.30;2.10;;;18.70;64.70;19.80;101560.00;;;;5009492;28;20255;-44
2022/09/22 02:43:31;;;;;;;2.30;2.10;;;18.60;64.60;19.80;101560.00;;;;5008847;28;20195;-44
2022/09/22 02:46:14;;;;;;;2.67;2.00;;;18.60;64.60;19.80;101562.00;;;;5009335;28;20155;-43
2022/09/22 02:48:43;;;;;;;2.80;2.00;;;18.60;64.50;19.80;101557.00;;;;5009179;28;20168;-43
2022/09/22 02:51:09;;;;;;;2.20;2.00;;;18.60;64.60;19.70;101554.00;;;;5009436;28;20164;-43
2022/09/22 02:53:35;;;;;;;2.40;2.20;;;18.60;64.60;19.80;101548.00;;;;5008536;28;20261;-44
2022/09/22 02:56:02;;;;;;;2.40;2.20;;;18.60;64.60;19.70;101551.00;;;;5009040;28;20172;-44
2022/09/22 02:58:27;;;;;;;2.30;2.10;;;18.60;64.60;19.70;101541.00;;;;5008641;28;20320;-44
2022/09/22 03:00:53;;;;;;;2.43;2.17;;;18.60;64.50;19.70;101551.00;;;;5008667;28;20356;-44
2022/09/22 03:03:19;;;;;;;2.33;2.10;;;18.60;64.60;19.70;101545.00;;;;5009799;28;20679;-44
2022/09/22 03:05:45;;;;;;;1.90;1.80;;;18.60;64.60;19.70;101549.00;;;;5010182;28;20167;-43
2022/09/22 03:08:10;;;;;;;2.47;2.27;;;18.60;64.50;19.70;101545.00;;;;5009559;28;20178;-43
2022/09/22 03:10:36;;;;;;;2.27;2.07;;;18.60;64.60;19.70;101547.00;;;;5009984;28;20186;-43
2022/09/22 03:13:02;;;;;;;2.40;2.10;;;18.60;64.60;19.60;101547.00;;;;5009944;28;20242;-43
2022/09/22 03:15:28;;;;;;;2.27;2.00;;;18.60;64.70;19.60;101547.00;;;;5009967;28;20669;-44
2022/09/22 03:17:53;;;;;;;2.23;2.03;;;18.50;64.60;19.60;101544.00;;;;5008135;28;20167;-43
2022/09/22 03:20:19;;;;;;;2.20;2.00;;;18.50;64.60;19.60;101536.00;;;;5010216;28;20256;-43
2022/09/22 03:22:45;;;;;;;2.30;2.10;;;18.50;64.70;19.60;101534.00;;;;5010456;28;20624;-43
2022/09/22 03:25:11;;;;;;;2.77;1.97;;;18.50;64.50;19.60;101543.00;;;;5009613;28;20238;-42
2022/09/22 03:27:37;;;;;;;2.47;2.23;;;18.50;64.60;19.60;101540.00;;;;5009708;28;20241;-42
2022/09/22 03:30:04;;;;;;;3.20;2.10;;;18.50;64.70;19.60;101541.00;;;;5009465;28;20171;-43
2022/09/22 03:32:30;;;;;;;4.07;2.20;;;18.50;64.70;19.60;101541.00;;;;5009307;28;20195;-43
2022/09/22 03:34:56;;;;;;;2.60;2.20;;;18.50;64.70;19.60;101537.00;;;;5011943;28;20290;-44
2022/09/22 03:37:22;;;;;;;2.40;2.00;;;18.50;64.50;19.50;101534.00;;;;5015143;28;20298;-43
2022/09/22 03:39:48;;;;;;;3.83;2.20;;;18.50;64.40;19.50;101539.00;;;;5008901;28;20574;-43
2022/09/22 03:42:14;;;;;;;5.13;2.00;;;18.50;64.60;19.50;101532.00;;;;5009132;28;20195;-44
2022/09/22 03:44:39;;;;;;;2.80;2.17;;;18.50;64.30;19.50;101528.00;;;;5009187;28;20179;-44
2022/09/22 03:47:05;;;;;;;5.30;2.27;;;18.40;64.40;19.50;101534.00;;;;5013997;28;20183;-44
2022/09/22 03:49:31;;;;;;;5.63;2.60;;;18.40;64.70;19.50;101541.00;;;;5016841;28;20180;-43
2022/09/22 03:51:56;;;;;;;2.87;2.00;;;18.40;65.00;19.50;101531.00;;;;5010658;28;20187;-43
2022/09/22 03:54:22;;;;;;;4.70;2.30;;;18.30;64.90;19.40;101535.00;;;;5008434;28;20267;-43
2022/09/22 03:56:48;;;;;;;2.43;2.20;;;18.30;64.90;19.40;101543.00;;;;5009578;28;20621;-44
2022/09/22 03:59:14;;;;;;;4.50;2.33;;;18.40;64.90;19.40;101540.00;;;;5009100;28;20180;-43
2022/09/22 04:01:40;;;;;;;2.40;2.17;;;18.30;64.90;19.40;101534.00;;;;5007822;28;20186;-44
2022/09/22 04:04:05;;;;;;;1.97;1.87;;;18.40;65.00;19.20;101526.00;;;;5009368;28;20195;-44
2022/09/22 04:06:32;;;;;;;3.30;2.20;;;18.30;64.90;19.40;101533.00;;;;5009296;28;20527;-44
2022/09/22 04:08:57;;;;;;;3.03;2.20;;;18.30;64.90;19.40;101523.00;;;;5008808;28;20192;-43
2022/09/22 04:11:23;;;;;;;2.20;2.00;;;18.30;64.90;19.40;101521.00;;;;5009357;28;20175;-42
2022/09/22 04:13:49;;;;;;;2.83;2.10;;;18.30;64.80;19.30;101513.00;;;;5011258;28;20281;-43
2022/09/22 04:16:15;;;;;;;2.40;2.20;;;18.30;64.90;19.30;101518.00;;;;5013829;28;20171;-43
2022/09/22 04:18:42;;;;;;;2.90;2.00;;;18.20;64.70;19.30;101513.00;;;;5009080;28;20229;-42
2022/09/22 04:21:07;;;;;;;3.73;2.17;;;18.20;65.30;19.30;101515.00;;;;5008654;28;20206;-44
2022/09/22 04:23:33;;;;;;;2.30;2.10;;;18.20;64.50;19.30;101513.00;;;;5009074;28;20219;-44
2022/09/22 04:26:00;;;;;;;2.27;2.07;;;18.20;64.70;19.30;101514.00;;;;5009268;28;20543;-43
2022/09/22 04:28:27;;;;;;;2.17;1.97;;;18.20;64.60;19.30;101516.00;;;;5008872;28;20171;-43
2022/09/22 04:30:52;;;;;;;2.40;2.20;;;18.20;64.60;19.30;101509.00;;;;5008911;28;20182;-43
2022/09/22 04:33:18;;;;;;;2.47;2.00;;;18.20;64.60;19.20;101509.00;;;;5014816;28;20199;-43
2022/09/22 04:35:48;;;;;;;4.67;2.10;;;18.20;64.50;19.20;101508.00;;;;5022891;28;20202;-43
2022/09/22 04:38:14;;;;;;;3.43;2.20;;;18.10;64.50;19.20;101521.00;;;;5015739;28;20663;-44
2022/09/22 04:40:40;;;;;;;3.17;2.00;;;18.10;64.60;19.20;101519.00;;;;5012858;28;20257;-43
2022/09/22 04:43:06;;;;;;;3.30;2.10;;;18.10;64.70;19.20;101515.00;;;;5022458;28;20194;-45
2022/09/22 04:45:31;;;;;;;5.20;2.27;;;18.10;64.70;19.20;101516.00;;;;5014630;28;20175;-42
2022/09/22 04:47:57;;;;;;;5.80;2.10;;;18.10;64.70;19.20;101505.00;;;;5008480;28;20262;-43
2022/09/22 04:50:23;;;;;;;6.83;2.40;;;18.10;64.70;19.20;101517.00;;;;5010103;28;20182;-44
2022/09/22 04:52:52;;;;;;;6.73;2.40;;;18.00;64.60;19.10;101510.00;;;;5009828;28;20245;-44
2022/09/22 04:55:18;;;;;;;6.83;2.57;;;18.10;64.50;19.10;101513.00;;;;5007776;28;20199;-44
2022/09/22 04:57:55;;;;;;;5.97;2.73;;;18.00;64.30;19.10;101513.00;;;;5008258;28;20168;-44
2022/09/22 05:00:22;;;;;;;6.13;2.43;;;18.00;64.30;19.10;101520.00;;;;5009132;28;20293;-44
2022/09/22 05:02:48;;;;;;;6.33;2.40;;;18.00;64.10;19.00;101510.00;;;;5009227;28;20198;-43
2022/09/22 05:05:13;;;;;;;5.33;2.50;;;17.90;63.90;19.00;101511.00;;;;5009017;28;20301;-43
2022/09/22 05:07:42;;;;;;;5.93;2.30;;;17.90;64.10;19.00;101515.00;;;;5008618;28;20175;-44
2022/09/22 05:10:09;;;;;;;4.00;2.17;;;17.90;63.90;19.00;101518.00;;;;5008565;28;20629;-44
2022/09/22 05:12:38;;;;;;;2.50;2.30;;;17.90;64.00;19.00;101517.00;;;;5008732;28;20217;-43
2022/09/22 05:15:05;;;;;;;4.00;2.17;;;17.90;63.90;19.00;101527.00;;;;5008624;28;20218;-43
2022/09/22 05:17:31;;;;;;;4.73;2.40;;;17.90;63.80;18.90;101516.00;;;;5008295;28;20694;-43
2022/09/22 05:19:57;;;;;;;4.37;2.30;;;17.80;63.70;18.90;101519.00;;;;5008132;28;20185;-44
2022/09/22 05:22:23;;;;;;;3.70;2.47;;;17.90;63.70;18.90;101518.00;;;;5008668;28;20217;-43
2022/09/22 05:24:49;;;;;;;4.60;2.67;;;17.80;63.50;18.90;101523.00;;;;5007839;28;20188;-43
2022/09/22 05:27:15;;;;;;;4.27;2.17;;;17.80;63.20;18.90;101522.00;;;;5008533;28;20187;-44
2022/09/22 05:29:41;;;;;;;8.50;2.47;;;17.80;63.30;18.90;101523.00;;;;5009195;28;20178;-44
2022/09/22 05:32:07;;;;;;;4.93;2.50;;;17.80;63.40;18.90;101526.00;;;;5008900;28;20793;-43
2022/09/22 05:34:33;;;;;;;4.93;2.20;;;17.90;63.50;18.90;101529.00;;;;5012390;28;20207;-43
2022/09/22 05:36:58;;;;;;;2.90;2.20;;;17.80;63.50;18.80;101520.00;;;;5011985;28;20180;-43
2022/09/22 05:39:24;;;;;;;3.87;2.40;;;17.80;63.40;18.80;101526.00;;;;5012566;28;20184;-43
2022/09/22 05:41:50;;;;;;;6.57;2.50;;;17.80;63.40;18.80;101533.00;;;;5010788;28;20669;-43
2022/09/22 05:44:16;;;;;;;3.17;2.30;;;17.70;63.30;18.80;101532.00;;;;5012181;28;20171;-43
2022/09/22 05:46:41;;;;;;;3.67;2.47;;;17.70;63.40;18.80;101530.00;;;;5012118;28;20922;-44
2022/09/22 05:49:07;;;;;;;2.60;2.40;;;17.70;63.30;18.80;101527.00;;;;5011685;28;20304;-44
2022/09/22 05:51:33;;;;;;;3.37;2.40;;;17.70;63.20;18.80;101529.00;;;;5012058;28;20728;-43
2022/09/22 05:53:58;;;;;;;3.40;2.17;;;17.70;63.30;18.70;101533.00;;;;5012004;28;20245;-43
2022/09/22 05:56:24;;;;;;;3.63;2.20;;;17.70;63.30;18.70;101532.00;;;;5011783;28;20170;-43
2022/09/22 05:58:50;;;;;;;3.83;2.20;;;17.70;63.20;18.70;101532.00;;;;5011481;28;20171;-43
2022/09/22 06:01:15;;;;;;;5.17;2.43;;;17.70;63.30;18.70;101532.00;;;;5010458;28;20190;-43
2022/09/22 06:03:42;;;;;;;3.00;1.90;;;17.70;63.30;18.70;101538.00;;;;5011495;28;20196;-44
2022/09/22 06:06:07;;;;;;;3.47;2.30;;;17.70;63.30;18.70;101535.00;;;;5012994;28;20198;-43
2022/09/22 06:08:33;;;;;;;2.63;2.00;;;17.60;63.20;18.70;101528.00;;;;5012278;28;20182;-43
2022/09/22 06:10:59;;;;;;;3.30;2.33;;;17.60;63.20;18.70;101535.00;;;;5012366;28;20185;-42
2022/09/22 06:13:24;;;;;;;2.57;2.30;;;17.60;63.10;18.60;101526.00;;;;5015333;28;20210;-44
2022/09/22 06:15:50;;;;;;;4.77;2.17;;;17.60;63.30;18.60;101526.00;;;;5023051;28;20173;-43
2022/09/22 06:18:18;;;;;;;2.50;2.30;;;17.60;63.10;18.60;101521.00;;;;5011367;28;20175;-44
2022/09/22 06:20:45;;;;;;;4.43;2.30;;;17.60;63.10;18.60;101534.00;;;;5010514;28;20182;-42
2022/09/22 06:23:14;;;;;;;3.07;2.30;;;17.50;63.00;18.60;101530.00;;;;5011221;28;20194;-44
2022/09/22 06:25:41;;;;;;;4.07;2.30;;;17.60;63.10;18.60;101529.00;;;;5011707;28;20181;-43
2022/09/22 06:28:10;;;;;;;3.20;2.30;;;17.60;63.20;18.60;101531.00;;;;5010831;28;20186;-43
2022/09/22 06:30:39;;;;;;;3.27;2.10;;;17.60;63.20;18.60;101529.00;;;;5017967;28;20198;-44
2022/09/22 06:33:09;;;;;;;3.77;2.30;;;17.60;63.20;18.50;101532.00;;;;5031266;28;20547;-44
2022/09/22 06:35:38;;;;;;;3.17;2.37;;;17.60;63.40;18.50;101529.00;;;;5031010;28;20681;-44
2022/09/22 06:38:05;;;;;;;4.83;2.33;;;17.50;63.20;18.50;101546.00;;;;5030370;28;20212;-44
2022/09/22 06:40:31;;;;;;;3.70;2.30;;;17.50;63.30;18.50;101526.00;;;;5030627;28;20182;-44
2022/09/22 06:42:58;;;;;;;4.67;2.37;;;17.50;63.40;18.50;101535.00;;;;5030253;28;20203;-43
2022/09/22 06:45:29;;;;;;;2.77;2.30;;;17.50;63.30;18.50;101524.00;;;;5031325;28;20168;-43
2022/09/22 06:47:58;;;;;;;2.37;2.00;;;17.50;63.30;18.50;101536.00;;;;5030372;28;20178;-44
2022/09/22 06:50:24;;;;;;;3.43;2.10;;;17.50;64.10;18.50;101526.00;;;;5029742;28;20181;-44
2022/09/22 06:55:29;;;;;;;2.20;2.00;;;17.40;63.60;18.40;101540.00;;;;5018180;22;20229;-43
2022/09/22 06:57:57;;;;;;;2.30;2.10;;;17.40;63.90;18.40;101535.00;;;;4989511;28;20627;-43
2022/09/22 07:00:27;;;;;;;2.83;2.20;;;17.40;63.70;18.40;101537.00;;;;4989878;28;20241;-43
2022/09/22 07:03:01;;;;;;;3.37;2.37;;;17.40;63.70;18.40;101531.00;;;;4990833;28;20227;-43
2022/09/22 07:05:26;;;;;;;2.20;2.00;;;17.40;63.60;18.40;101529.00;;;;4966541;28;20187;-43
2022/09/22 07:07:52;;;;;;;2.23;2.03;;;17.40;63.60;18.40;101534.00;;;;4963328;28;20203;-44
2022/09/22 07:10:18;;;;;;;2.30;2.10;;;17.40;63.50;18.10;101537.00;;;;4951856;28;20254;-43
2022/09/22 07:12:43;;;;;;;2.37;2.17;;;17.40;63.50;18.40;101527.00;;;;4957634;28;20210;-44
2022/09/22 07:15:09;;;;;;;2.77;2.10;;;17.40;63.50;18.30;101527.00;;;;4956846;28;20722;-44
2022/09/22 07:17:35;;;;;;;2.00;1.90;;;17.40;63.50;18.30;101529.00;;;;4959170;28;20231;-44
2022/09/22 07:20:03;;;;;;;2.60;2.40;;;17.40;63.60;18.30;101532.00;;;;4952928;28;20181;-44
2022/09/22 07:22:29;;;;;;;2.30;2.13;;;17.40;63.60;18.30;101531.00;;;;4961928;28;20197;-43
2022/09/22 07:24:55;;;;;;;2.20;2.00;;;17.30;63.50;18.30;101531.00;;;;4955714;28;20864;-43
2022/09/22 07:27:24;;;;;;;2.43;2.13;;;17.30;63.80;18.30;101535.00;;;;4946482;28;20186;-43
2022/09/22 07:29:53;;;;;;;2.40;2.20;;;17.30;63.80;18.30;101506.00;;;;4955173;28;20181;-43
2022/09/22 07:32:20;;;;;;;2.33;1.90;;;17.40;64.00;18.30;101538.00;;;;4960571;28;20171;-43
2022/09/22 07:34:48;;;;;;;5.43;2.20;;;17.40;64.10;18.30;101537.00;;;;4963135;28;20887;-42
2022/09/22 07:37:14;;;;;;;5.63;2.10;;;17.50;64.20;18.30;101532.00;;;;4952802;28;20529;-44
2022/09/22 07:39:47;;;;;;;5.97;1.90;;;17.60;64.10;18.30;101530.00;;;;4962551;28;20200;-44
2022/09/22 07:42:12;;;;;;;4.07;2.30;;;17.70;64.30;18.30;101537.00;;;;4957819;28;20173;-45
2022/09/22 07:48:35;;;;;;;4.27;2.20;;;17.70;64.20;18.30;101532.00;;;;4959966;28;20193;-42
2022/09/22 07:50:08;;;;;;;4.23;2.23;;;17.70;64.30;18.40;101530.00;;;;4951516;28;20206;-43
2022/09/22 07:52:34;;;;;;;4.63;2.17;;;17.80;64.40;18.40;101531.00;;;;4951959;28;20186;-45
2022/09/22 07:54:59;;;;;;;2.90;2.40;;;17.80;64.30;18.40;101530.00;;;;4958424;28;20762;-42
2022/09/22 07:57:25;;;;;;;4.80;2.20;;;17.80;64.50;18.40;101559.00;;;;4956730;28;20227;-43
2022/09/22 07:59:51;;;;;;;2.73;2.10;;;17.80;64.60;18.40;101523.00;;;;4955216;28;20191;-43
2022/09/22 08:02:17;;;;;;;3.10;2.07;;;17.80;64.60;18.40;101531.00;;;;4957861;28;20176;-43
2022/09/22 08:04:43;;;;;;;2.40;2.20;;;17.80;64.80;18.40;101517.00;;;;4951600;28;20866;-43
2022/09/22 08:07:08;;;;;;;2.57;1.90;;;17.80;64.90;18.50;101531.00;;;;4951496;28;20320;-43
2022/09/22 08:09:34;;;;;;;2.40;2.00;;;17.80;64.90;18.50;101529.00;;;;4961892;28;20186;-45
2022/09/22 08:12:01;;;;;;;4.67;2.00;;;17.80;64.90;18.50;101531.00;;;;4948153;28;20187;-44
2022/09/22 08:14:27;;;;;;;4.93;2.30;;;17.80;64.90;18.50;101533.00;;;;4946436;28;20198;-44
2022/09/22 08:16:53;;;;;;;4.93;2.00;;;17.80;64.90;18.50;101531.00;;;;4945057;28;20845;-44
2022/09/22 08:19:22;;;;;;;2.47;2.10;;;17.80;65.00;18.50;101521.00;;;;4960231;28;20303;-44
2022/09/22 08:21:50;;;;;;;3.40;2.10;;;17.90;65.20;18.50;101524.00;;;;4962785;28;20586;-44
2022/09/22 08:24:20;;;;;;;2.23;2.00;;;17.90;65.20;18.50;101520.00;;;;4961901;28;20235;-44
2022/09/22 08:26:46;;;;;;;3.10;2.10;;;17.90;65.30;18.60;101531.00;;;;4950122;28;20188;-44
2022/09/22 08:29:12;;;;;;;2.77;2.10;;;17.80;65.30;18.60;101521.00;;;;4944706;28;20195;-44
2022/09/22 08:31:40;;;;;;;2.30;1.90;;;17.80;65.40;18.60;101522.00;;;;4946688;28;20174;-44
2022/09/22 08:34:06;;;;;;;4.80;1.87;;;17.80;65.40;18.50;101466.00;;;;4951545;28;20644;-45
2022/09/22 08:36:32;;;;;;;2.30;2.10;;;17.80;65.40;18.60;101531.00;;;;4950164;28;20237;-44
2022/09/22 08:38:59;;;;;;;11.43;2.43;;;17.80;65.50;18.60;101537.00;;;;4958826;28;20182;-45
2022/09/22 08:41:28;;;;;;;10.77;2.50;;;17.90;65.70;18.60;101540.00;;;;4944456;28;21181;-44
2022/09/22 08:44:00;;;;;;;7.73;2.33;;;17.80;65.90;18.60;101524.00;;;;4948603;28;20576;-43
2022/09/22 08:46:34;;;;;;;5.40;2.17;;;17.90;65.90;18.60;101530.00;;;;4958938;28;20196;-43
2022/09/22 08:52:38;;;;;;;7.03;2.30;;;17.80;65.90;18.60;101534.00;;;;4957588;28;21547;-43
2022/09/22 08:55:08;;;;;;;7.13;2.20;;;17.90;66.10;18.60;101531.00;;;;4944352;28;20718;-43
2022/09/22 08:58:26;;;;;;;4.50;2.30;;;17.90;66.20;18.60;101532.00;;;;4945955;28;20193;-43
2022/09/22 09:01:45;;;;;;;5.20;2.10;;;17.90;66.20;18.60;101527.00;;;;4987666;28;20179;-43
2022/09/22 09:04:48;;;;;;;3.73;2.10;;;17.90;66.30;18.50;101531.00;;;;4980917;28;20754;-43
2022/09/22 09:07:42;;;;;;;6.73;2.40;;;17.90;66.30;18.50;101527.00;;;;4989973;28;20180;-44
2022/09/22 09:10:48;;;;;;;3.20;2.13;;;17.90;66.30;18.60;101531.00;;;;4992399;28;20167;-42
2022/09/22 09:13:40;;;;;;;5.10;2.30;;;17.90;66.40;18.60;101535.00;;;;4993680;28;20163;-43
2022/09/22 09:16:51;;;;;;;7.60;2.03;;;17.90;66.40;18.60;101536.00;;;;4992167;28;20185;-42
2022/09/22 09:19:34;;;;;;;5.67;2.10;;;17.90;66.50;18.60;101514.00;;;;4964342;28;20212;-42
2022/09/22 09:22:04;;;;;;;3.17;2.10;;;17.90;66.60;18.60;101530.00;;;;4992386;28;20160;-42
2022/09/22 09:24:39;;;;;;;4.20;2.30;;;17.90;66.60;18.60;101536.00;;;;4991348;28;20195;-42
2022/09/22 09:27:11;;;;;;;2.83;2.00;;;17.90;66.80;18.60;101527.00;;;;4975676;28;20178;-43
2022/09/22 09:30:11;;;;;;;3.63;2.40;;;17.90;66.80;18.60;101527.00;;;;4991959;28;20174;-42
2022/09/22 09:32:59;;;;;;;2.00;1.80;;;17.90;66.90;18.60;101524.00;;;;4993294;28;20643;-43
2022/09/22 09:35:54;;;;;;;3.73;2.20;;;18.00;67.00;18.60;101528.00;;;;4991225;28;20582;-44
2022/09/22 09:38:29;;;;;;;3.03;2.00;;;18.00;67.00;18.60;101529.00;;;;4983891;28;20188;-44
2022/09/22 09:41:08;;;;;;;4.47;2.20;;;18.00;67.10;18.70;101523.00;;;;4990977;28;20182;-43
2022/09/22 09:43:34;;;;;;;3.17;2.00;;;18.00;67.30;18.70;101522.00;;;;4976258;28;20283;-43
2022/09/22 09:46:25;;;;;;;4.63;2.00;;;18.00;67.30;18.70;101519.00;;;;4991259;28;20298;-43
2022/09/22 09:49:09;;;;;;;2.43;2.03;;;18.00;67.20;18.70;101522.00;;;;4991181;28;20626;-43
2022/09/22 09:51:38;;;;;;;3.97;2.27;;;18.00;67.20;18.70;101513.00;;;;4991111;28;20169;-42
2022/09/22 09:54:08;;;;;;;5.80;1.90;;;18.10;67.30;18.70;101499.00;;;;4974378;28;20205;-44
2022/09/22 09:56:36;;;;;;;2.80;1.87;;;18.10;67.40;18.70;101504.00;;;;4990979;28;20590;-43
2022/09/22 10:01:53;;;;;;;4.93;2.20;;;18.10;67.30;18.70;101497.00;;;;4993707;28;20645;-43
2022/09/22 10:04:37;;;;;;;2.83;2.00;;;18.10;67.30;18.80;101485.00;;;;4990374;28;20203;-44
2022/09/22 10:07:21;;;;;;;4.07;1.93;;;18.10;67.40;18.80;101473.00;;;;4990742;28;20187;-43
2022/09/22 10:09:48;;;;;;;2.20;1.80;;;18.10;67.40;18.70;101472.00;;;;4991318;28;20168;-44
2022/09/22 10:12:29;;;;;;;2.67;1.93;;;18.10;67.60;18.80;101483.00;;;;4990914;28;20261;-42
2022/09/22 10:14:57;;;;;;;3.60;1.90;;;18.10;67.80;18.80;101477.00;;;;4991764;28;20230;-42
2022/09/22 10:17:43;;;;;;;2.20;2.00;;;18.10;67.70;18.80;101475.00;;;;4992254;28;20693;-42
2022/09/22 10:20:21;;;;;;;2.17;1.90;;;18.10;67.90;18.80;101475.00;;;;4991534;28;20517;-44
2022/09/22 10:22:48;;;;;;;2.20;1.90;;;18.10;68.10;18.80;101465.00;;;;4992039;28;20176;-44
2022/09/22 10:25:30;;;;;;;5.43;2.07;;;18.10;68.10;18.80;101465.00;;;;4990125;28;20203;-44
2022/09/22 10:28:13;;;;;;;2.20;1.90;;;18.20;68.10;18.80;101470.00;;;;4992052;28;20183;-43
2022/09/22 10:30:39;;;;;;;2.10;1.80;;;18.20;68.40;18.80;101461.00;;;;4991223;28;20184;-43
2022/09/22 10:33:18;;;;;;;2.27;1.70;;;18.20;68.30;18.80;101466.00;;;;4990045;28;20675;-43
2022/09/22 10:35:54;;;;;;;2.20;2.00;;;18.20;68.40;18.80;101472.00;;;;4990157;28;20179;-42
2022/09/22 10:38:22;;;;;;;2.40;1.90;;;18.20;68.50;18.90;101456.00;;;;4991644;28;20189;-44
2022/09/22 10:40:55;;;;;;;1.83;1.70;;;18.20;68.40;18.90;101459.00;;;;4991718;28;20172;-42
2022/09/22 10:43:36;;;;;;;2.40;1.90;;;18.20;68.50;18.90;101467.00;;;;4991400;28;20197;-43
2022/09/22 10:46:42;;;;;;;1.90;1.80;;;18.20;68.60;18.90;101458.00;;;;4991985;28;20533;-44
2022/09/22 10:49:38;;;;;;;2.37;1.70;;;18.30;68.80;18.90;101457.00;;;;4959224;28;20530;-43
2022/09/22 10:52:24;;;;;;;2.23;1.80;;;18.30;68.60;18.90;101450.00;;;;4991674;28;20176;-42
2022/09/22 10:55:21;;;;;;;2.97;1.80;;;18.30;68.70;18.90;101457.00;;;;4990432;28;20672;-42
2022/09/22 10:58:08;;;;;;;3.30;1.87;;;18.40;68.80;18.90;101444.00;;;;4989747;28;20187;-42
2022/09/22 11:00:35;;;;;;;1.83;1.70;;;18.30;68.70;18.90;101443.00;;;;4989993;28;20159;-44
2022/09/22 11:03:37;;;;;;;1.80;1.70;;;18.40;69.60;19.00;101449.00;;;;4973846;28;20227;-44
2022/09/22 11:12:53;;;;;;;1.87;1.77;;;18.40;68.80;19.00;101431.00;;;;4991625;28;20190;-43
2022/09/22 11:15:29;;;;;;;4.23;1.60;;;18.40;69.00;19.00;101430.00;;;;4989388;28;20225;-43
2022/09/22 11:18:07;;;;;;;1.80;1.70;;;18.50;69.00;19.00;101434.00;;;;4990827;28;20258;-42
2022/09/22 11:20:44;;;;;;;2.17;1.93;;;18.50;69.00;19.10;101436.00;;;;4989418;28;20302;-42
2022/09/22 11:23:42;;;;;;;1.63;1.53;;;18.50;69.00;19.10;101424.00;;;;4989619;28;20178;-43
2022/09/22 11:26:27;;;;;;;2.43;1.70;;;18.50;69.00;19.10;101431.00;;;;4989770;28;20520;-43
2022/09/22 11:28:59;;;;;;;2.00;1.80;;;18.50;68.80;19.10;101419.00;;;;4989644;28;20164;-43